createdAt,value
2019-04-25T00:00:12.659Z,67.45
2019-04-25T00:01:12.664Z,67.26
2019-04-25T00:02:12.680Z,67.58
2019-04-25T00:03:12.684Z,67.68
2019-04-25T00:04:12.691Z,68.02
2019-04-25T00:05:12.697Z,68.59
2019-04-25T00:06:12.704Z,68.40
2019-04-25T00:07:12.718Z,68.88
2019-04-25T00:08:12.722Z,69.35
2019-04-25T00:09:12.735Z,69.35
2019-04-25T00:10:13.817Z,69.17
2019-04-25T00:11:12.747Z,68.88
2019-04-25T00:12:12.755Z,69.83
2019-04-25T00:13:12.761Z,69.83
2019-04-25T00:14:13.355Z,69.32
2019-04-25T00:15:12.778Z,69.51
2019-04-25T00:16:12.785Z,69.23
2019-04-25T00:17:12.797Z,69.13
2019-04-25T00:18:12.804Z,69.99
2019-04-25T00:19:12.813Z,69.89
2019-04-25T00:20:12.818Z,70.18
2019-04-25T00:21:12.821Z,70.75
2019-04-25T00:22:12.832Z,69.99
2019-04-25T00:23:12.843Z,70.18
2019-04-25T00:24:12.848Z,70.56
2019-04-25T00:25:17.115Z,70.47
2019-04-25T00:26:12.866Z,70.37
2019-04-25T00:27:12.875Z,70.84
2019-04-25T00:28:12.885Z,71.13
2019-04-25T00:29:13.279Z,70.94
2019-04-25T00:30:12.896Z,70.84
2019-04-25T00:31:12.912Z,71.22
2019-04-25T00:32:12.915Z,70.56
2019-04-25T00:33:12.923Z,70.65
2019-04-25T00:34:12.931Z,70.94
2019-04-25T00:35:12.936Z,70.65
2019-04-25T00:36:12.945Z,70.47
2019-04-25T00:37:14.011Z,70.37
2019-04-25T00:38:12.961Z,70.37
2019-04-25T00:39:12.969Z,70.47
2019-04-25T00:40:13.555Z,69.79
2019-04-25T00:41:12.982Z,69.70
2019-04-25T00:42:12.992Z,70.12
2019-04-25T00:43:13.001Z,69.79
2019-04-25T00:44:13.009Z,70.02
2019-04-25T00:45:13.997Z,69.32
2019-04-25T00:46:13.021Z,69.51
2019-04-25T00:47:13.031Z,69.74
2019-04-25T00:48:13.044Z,69.79
2019-04-25T00:49:13.048Z,70.27
2019-04-25T00:50:13.055Z,69.89
2019-04-25T00:51:13.066Z,69.79
2019-04-25T00:52:13.074Z,69.89
2019-04-25T00:53:13.081Z,69.89
2019-04-25T00:54:13.085Z,70.65
2019-04-25T00:55:16.923Z,70.08
2019-04-25T00:56:13.104Z,70.18
2019-04-25T00:57:13.112Z,69.32
2019-04-25T00:58:13.115Z,68.94
2019-04-25T00:59:14.028Z,69.60
2019-04-25T01:00:13.135Z,69.13
2019-04-25T01:01:13.142Z,69.83
2019-04-25T01:02:13.149Z,69.89
2019-04-25T01:03:13.159Z,70.27
2019-04-25T01:04:13.165Z,70.18
2019-04-25T01:05:13.171Z,70.08
2019-04-25T01:06:13.203Z,70.56
2019-04-25T01:07:13.187Z,70.65
2019-04-25T01:08:13.200Z,70.84
2019-04-25T01:09:13.203Z,70.65
2019-04-25T01:10:13.215Z,70.56
2019-04-25T01:11:13.220Z,70.84
2019-04-25T01:12:13.246Z,71.22
2019-04-25T01:13:13.234Z,70.94
2019-04-25T01:14:13.247Z,70.08
2019-04-25T01:15:13.251Z,71.32
2019-04-25T01:16:13.257Z,70.75
2019-04-25T01:17:13.268Z,71.03
2019-04-25T01:18:13.279Z,70.65
2019-04-25T01:19:13.493Z,70.84
2019-04-25T01:20:13.986Z,70.56
2019-04-25T01:21:14.127Z,70.75
2019-04-25T01:22:14.472Z,70.75
2019-04-25T01:23:13.759Z,70.37
2019-04-25T01:24:14.103Z,70.27
2019-04-25T01:25:13.801Z,69.51
2019-04-25T01:26:13.345Z,70.18
2019-04-25T01:27:13.597Z,69.70
2019-04-25T01:28:13.352Z,70.08
2019-04-25T01:29:13.631Z,69.99
2019-04-25T01:30:14.121Z,70.18
2019-04-25T01:31:13.799Z,70.47
2019-04-25T01:32:13.989Z,70.27
2019-04-25T01:33:13.573Z,70.94
2019-04-25T01:34:14.268Z,70.94
2019-04-25T01:35:13.984Z,70.75
2019-04-25T01:36:13.442Z,70.94
2019-04-25T01:37:13.922Z,71.03
2019-04-25T01:38:13.891Z,71.03
2019-04-25T01:39:14.373Z,71.80
2019-04-25T01:40:14.064Z,71.13
2019-04-25T01:41:14.579Z,71.32
2019-04-25T01:42:13.869Z,71.45
2019-04-25T01:43:13.840Z,70.97
2019-04-25T01:44:14.306Z,70.88
2019-04-25T01:45:14.098Z,71.07
2019-04-25T01:46:14.810Z,71.17
2019-04-25T01:47:14.091Z,71.26
2019-04-25T01:48:13.731Z,70.69
2019-04-25T01:49:14.022Z,70.69
2019-04-25T01:50:13.767Z,71.42
2019-04-25T01:51:14.217Z,70.97
2019-04-25T01:52:13.744Z,71.45
2019-04-25T01:53:14.614Z,71.36
2019-04-25T01:54:14.130Z,71.80
2019-04-25T01:55:13.807Z,71.93
2019-04-25T01:56:13.668Z,72.41
2019-04-25T01:57:14.254Z,72.78
2019-04-25T01:58:13.783Z,71.93
2019-04-25T01:59:15.166Z,72.12
2019-04-25T02:00:14.011Z,71.83
2019-04-25T02:01:14.357Z,71.22
2019-04-25T02:02:14.052Z,69.99
2019-04-25T02:03:13.627Z,69.89
2019-04-25T02:04:13.631Z,70.37
2019-04-25T02:05:13.938Z,70.84
2019-04-25T02:06:13.777Z,71.42
2019-04-25T02:07:13.659Z,71.42
2019-04-25T02:08:14.281Z,72.08
2019-04-25T02:09:13.769Z,72.65
2019-04-25T02:10:13.681Z,72.75
2019-04-25T02:11:14.197Z,72.75
2019-04-25T02:12:15.450Z,72.21
2019-04-25T02:13:13.990Z,72.21
2019-04-25T02:14:13.799Z,72.21
2019-04-25T02:15:13.848Z,71.93
2019-04-25T02:16:14.239Z,72.17
2019-04-25T02:17:14.171Z,71.98
2019-04-25T02:18:13.784Z,72.60
2019-04-25T02:19:14.510Z,72.02
2019-04-25T02:20:14.056Z,72.50
2019-04-25T02:21:13.850Z,72.50
2019-04-25T02:22:14.558Z,71.73
2019-04-25T02:23:14.194Z,71.55
2019-04-25T02:24:13.796Z,71.07
2019-04-25T02:25:13.801Z,71.26
2019-04-25T02:26:16.751Z,70.78
2019-04-25T02:27:13.812Z,70.37
2019-04-25T02:28:15.789Z,69.89
2019-04-25T02:29:13.825Z,70.37
2019-04-25T02:30:15.489Z,71.07
2019-04-25T02:31:17.972Z,71.13
2019-04-25T02:32:14.555Z,71.13
2019-04-25T02:33:14.319Z,71.22
2019-04-25T02:34:17.452Z,70.84
2019-04-25T02:35:14.705Z,70.27
2019-04-25T02:36:15.036Z,70.18
2019-04-25T02:37:14.570Z,71.13
2019-04-25T02:38:14.667Z,71.22
2019-04-25T02:39:14.855Z,71.13
2019-04-25T02:40:14.217Z,71.42
2019-04-25T02:41:14.834Z,71.32
2019-04-25T02:42:16.541Z,71.61
2019-04-25T02:43:14.366Z,71.51
2019-04-25T02:44:14.545Z,72.27
2019-04-25T02:45:16.468Z,72.12
2019-04-25T02:46:15.133Z,72.41
2019-04-25T02:47:14.801Z,72.31
2019-04-25T02:48:14.255Z,72.21
2019-04-25T02:49:28.913Z,72.78
2019-04-25T02:50:15.102Z,72.41
2019-04-25T02:51:14.575Z,72.78
2019-04-25T02:52:17.746Z,72.31
2019-04-25T02:53:14.233Z,71.93
2019-04-25T02:54:14.155Z,72.21
2019-04-25T02:55:29.516Z,72.31
2019-04-25T02:56:30.455Z,71.17
2019-04-25T02:57:14.627Z,71.26
2019-04-25T02:58:14.252Z,71.64
2019-04-25T02:59:15.122Z,71.45
2019-04-25T03:00:14.961Z,71.45
2019-04-25T03:01:19.550Z,71.36
2019-04-25T03:02:15.449Z,71.64
2019-04-25T03:03:14.938Z,72.12
2019-04-25T03:04:14.567Z,72.31
2019-04-25T03:05:14.473Z,71.93
2019-04-25T03:06:15.028Z,72.21
2019-04-25T03:07:16.854Z,72.31
2019-04-25T03:08:14.356Z,72.21
2019-04-25T03:09:15.415Z,71.45
2019-04-25T03:10:14.990Z,71.36
2019-04-25T03:11:14.956Z,71.64
2019-04-25T03:12:26.904Z,72.02
2019-04-25T03:13:14.928Z,71.73
2019-04-25T03:14:14.735Z,72.02
2019-04-25T03:15:14.588Z,71.36
2019-04-25T03:16:14.248Z,71.55
2019-04-25T03:17:14.590Z,70.78
2019-04-25T03:18:15.203Z,71.07
2019-04-25T03:19:14.259Z,71.36
2019-04-25T03:20:14.892Z,71.55
2019-04-25T03:21:17.342Z,71.93
2019-04-25T03:22:15.025Z,71.83
2019-04-25T03:23:14.643Z,71.55
2019-04-25T03:24:16.794Z,71.26
2019-04-25T03:25:17.386Z,71.73
2019-04-25T03:26:14.267Z,71.93
2019-04-25T03:27:14.329Z,71.73
2019-04-25T03:28:15.645Z,71.83
2019-04-25T03:29:14.290Z,71.83
2019-04-25T03:30:17.656Z,71.93
2019-04-25T03:31:22.053Z,71.55
2019-04-25T03:32:19.341Z,71.45
2019-04-25T03:33:19.330Z,71.36
2019-04-25T03:34:19.835Z,71.45
2019-04-25T03:35:14.573Z,72.21
2019-04-25T03:36:17.065Z,72.12
2019-04-25T03:37:14.352Z,72.21
2019-04-25T03:38:14.555Z,72.31
2019-04-25T03:39:16.281Z,72.02
2019-04-25T03:40:14.380Z,71.93
2019-04-25T03:41:14.761Z,71.93
2019-04-25T03:42:14.389Z,72.12
2019-04-25T03:43:14.985Z,71.73
2019-04-25T03:44:14.405Z,71.64
2019-04-25T03:45:14.921Z,72.12
2019-04-25T03:46:14.421Z,71.55
2019-04-25T03:47:14.428Z,71.32
2019-04-25T03:48:14.433Z,71.70
2019-04-25T03:49:14.442Z,71.45
2019-04-25T03:50:14.450Z,71.89
2019-04-25T03:51:15.679Z,71.89
2019-04-25T03:52:14.467Z,72.56
2019-04-25T03:53:14.472Z,72.85
2019-04-25T03:54:14.485Z,72.08
2019-04-25T03:55:14.566Z,72.08
2019-04-25T03:56:14.714Z,72.08
2019-04-25T03:57:14.663Z,72.27
2019-04-25T03:58:14.683Z,72.08
2019-04-25T03:59:16.045Z,72.56
2019-04-25T04:00:14.712Z,72.27
2019-04-25T04:01:15.656Z,71.80
2019-04-25T04:02:15.241Z,72.17
2019-04-25T04:03:15.224Z,71.13
2019-04-25T04:04:16.305Z,71.22
2019-04-25T04:05:14.997Z,71.42
2019-04-25T04:06:15.626Z,71.22
2019-04-25T04:07:15.875Z,71.42
2019-04-25T04:08:15.727Z,71.61
2019-04-25T04:09:15.208Z,71.98
2019-04-25T04:10:15.518Z,71.98
2019-04-25T04:11:15.661Z,71.98
2019-04-25T04:12:15.646Z,71.98
2019-04-25T04:13:15.810Z,72.46
2019-04-25T04:14:15.722Z,73.03
2019-04-25T04:15:15.933Z,72.85
2019-04-25T04:16:15.617Z,72.56
2019-04-25T04:17:15.815Z,72.56
2019-04-25T04:18:17.053Z,72.65
2019-04-25T04:19:15.747Z,72.81
2019-04-25T04:20:15.899Z,73.03
2019-04-25T04:21:16.203Z,73.13
2019-04-25T04:22:15.419Z,73.38
2019-04-25T04:23:15.414Z,73.13
2019-04-25T04:24:15.208Z,73.13
2019-04-25T04:25:14.757Z,73.85
2019-04-25T04:26:14.725Z,73.85
2019-04-25T04:27:15.837Z,73.85
2019-04-25T04:28:14.945Z,73.28
2019-04-25T04:29:15.312Z,73.89
2019-04-25T04:30:15.367Z,73.66
2019-04-25T04:31:15.441Z,73.70
2019-04-25T04:32:15.997Z,73.76
2019-04-25T04:33:25.718Z,73.41
2019-04-25T04:34:15.618Z,73.95
2019-04-25T04:35:16.006Z,73.57
2019-04-25T04:36:17.289Z,73.66
2019-04-25T04:37:16.043Z,73.57
2019-04-25T04:38:15.530Z,74.18
2019-04-25T04:39:16.815Z,74.24
2019-04-25T04:40:16.953Z,74.52
2019-04-25T04:41:15.465Z,74.37
2019-04-25T04:42:15.180Z,74.75
2019-04-25T04:43:16.290Z,74.84
2019-04-25T04:44:15.618Z,74.37
2019-04-25T04:45:15.750Z,73.99
2019-04-25T04:46:17.130Z,74.18
2019-04-25T04:47:15.456Z,74.18
2019-04-25T04:48:15.525Z,74.27
2019-04-25T04:49:15.338Z,74.84
2019-04-25T04:50:15.398Z,74.37
2019-04-25T04:51:15.790Z,74.37
2019-04-25T04:52:15.815Z,74.27
2019-04-25T04:53:16.029Z,74.08
2019-04-25T04:54:15.511Z,73.41
2019-04-25T04:55:17.234Z,73.51
2019-04-25T04:56:15.607Z,73.89
2019-04-25T04:57:26.569Z,73.89
2019-04-25T04:58:16.103Z,74.37
2019-04-25T04:59:15.504Z,74.37
2019-04-25T05:00:15.595Z,74.46
2019-04-25T05:01:15.681Z,74.37
2019-04-25T05:02:16.099Z,74.27
2019-04-25T05:03:15.799Z,73.89
2019-04-25T05:04:16.046Z,74.27
2019-04-25T05:05:15.926Z,73.99
2019-04-25T05:06:15.958Z,74.46
2019-04-25T05:07:16.222Z,74.46
2019-04-25T05:08:16.433Z,73.99
2019-04-25T05:09:15.644Z,74.08
2019-04-25T05:10:17.722Z,74.08
2019-04-25T05:11:15.811Z,74.46
2019-04-25T05:12:16.132Z,74.27
2019-04-25T05:13:16.483Z,73.89
2019-04-25T05:14:16.162Z,74.46
2019-04-25T05:15:16.654Z,74.27
2019-04-25T05:16:16.213Z,74.75
2019-04-25T05:17:16.191Z,74.84
2019-04-25T05:18:20.641Z,75.13
2019-04-25T05:19:15.847Z,74.75
2019-04-25T05:20:16.397Z,75.32
2019-04-25T05:21:16.190Z,75.13
2019-04-25T05:22:16.050Z,75.42
2019-04-25T05:23:16.233Z,75.23
2019-04-25T05:24:16.098Z,75.26
2019-04-25T05:25:16.358Z,75.26
2019-04-25T05:26:16.124Z,75.26
2019-04-25T05:27:30.594Z,75.16
2019-04-25T05:28:16.140Z,75.26
2019-04-25T05:29:19.811Z,75.36
2019-04-25T05:30:16.621Z,75.16
2019-04-25T05:31:16.756Z,75.26
2019-04-25T05:32:15.803Z,75.64
2019-04-25T05:33:18.639Z,75.55
2019-04-25T05:34:16.921Z,75.64
2019-04-25T05:35:16.286Z,75.87
2019-04-25T05:36:17.199Z,75.74
2019-04-25T05:37:16.310Z,76.03
2019-04-25T05:38:16.303Z,76.69
2019-04-25T05:39:17.407Z,76.44
2019-04-25T05:40:16.280Z,76.44
2019-04-25T05:41:16.126Z,76.82
2019-04-25T05:42:16.987Z,76.54
2019-04-25T05:43:16.285Z,77.59
2019-04-25T05:44:16.030Z,77.11
2019-04-25T05:45:17.510Z,77.20
2019-04-25T05:46:15.405Z,77.40
2019-04-25T05:47:16.275Z,77.20
2019-04-25T05:48:16.062Z,77.20
2019-04-25T05:49:15.614Z,77.20
2019-04-25T05:50:15.792Z,77.34
2019-04-25T05:51:15.854Z,77.62
2019-04-25T05:52:16.058Z,77.06
2019-04-25T05:53:16.222Z,77.34
2019-04-25T05:54:16.531Z,76.77
2019-04-25T05:55:17.296Z,77.34
2019-04-25T05:56:16.468Z,77.91
2019-04-25T05:57:16.537Z,77.06
2019-04-25T05:58:16.801Z,77.34
2019-04-25T05:59:15.428Z,77.34
2019-04-25T06:00:17.492Z,76.48
2019-04-25T06:01:15.439Z,76.29
2019-04-25T06:02:15.449Z,76.96
2019-04-25T06:03:15.460Z,77.34
2019-04-25T06:04:15.463Z,77.38
2019-04-25T06:05:15.473Z,77.38
2019-04-25T06:06:15.482Z,76.52
2019-04-25T06:07:15.485Z,77.09
2019-04-25T06:08:15.498Z,77.47
2019-04-25T06:09:15.505Z,77.00
2019-04-25T06:10:15.514Z,77.47
2019-04-25T06:11:15.519Z,76.52
2019-04-25T06:12:15.530Z,75.85
2019-04-25T06:13:15.537Z,75.47
2019-04-25T06:14:15.543Z,75.47
2019-04-25T06:15:15.552Z,75.18
2019-04-25T06:16:15.560Z,74.90
2019-04-25T06:17:15.570Z,74.90
2019-04-25T06:18:15.575Z,75.66
2019-04-25T06:19:18.500Z,74.80
2019-04-25T06:20:15.592Z,75.13
2019-04-25T06:21:15.599Z,74.27
2019-04-25T06:22:15.608Z,73.98
2019-04-25T06:23:15.622Z,73.79
2019-04-25T06:24:15.626Z,74.08
2019-04-25T06:25:16.438Z,73.69
2019-04-25T06:26:23.020Z,73.69
2019-04-25T06:27:15.648Z,73.50
2019-04-25T06:28:15.656Z,73.50
2019-04-25T06:29:15.665Z,73.98
2019-04-25T06:30:15.907Z,74.55
2019-04-25T06:31:15.677Z,74.46
2019-04-25T06:32:15.689Z,74.55
2019-04-25T06:33:15.732Z,74.37
2019-04-25T06:34:15.701Z,74.37
2019-04-25T06:35:15.709Z,74.02
2019-04-25T06:36:15.719Z,74.02
2019-04-25T06:37:15.727Z,74.59
2019-04-25T06:38:15.733Z,74.27
2019-04-25T06:39:15.743Z,74.11
2019-04-25T06:40:15.751Z,74.02
2019-04-25T06:41:15.759Z,73.83
2019-04-25T06:42:15.766Z,73.73
2019-04-25T06:43:15.776Z,73.73
2019-04-25T06:44:15.781Z,73.07
2019-04-25T06:45:15.792Z,72.87
2019-04-25T06:46:15.800Z,73.07
2019-04-25T06:47:15.811Z,73.35
2019-04-25T06:48:15.817Z,73.44
2019-04-25T06:49:15.825Z,73.44
2019-04-25T06:50:15.931Z,73.73
2019-04-25T06:51:15.862Z,73.96
2019-04-25T06:52:15.852Z,73.92
2019-04-25T06:53:15.855Z,74.11
2019-04-25T06:54:15.877Z,73.96
2019-04-25T06:55:15.878Z,73.58
2019-04-25T06:56:15.886Z,73.58
2019-04-25T06:57:15.887Z,73.67
2019-04-25T06:58:15.905Z,72.91
2019-04-25T06:59:15.904Z,72.81
2019-04-25T07:00:15.910Z,72.81
2019-04-25T07:01:15.924Z,72.37
2019-04-25T07:02:15.926Z,72.75
2019-04-25T07:03:15.940Z,72.08
2019-04-25T07:04:15.948Z,73.14
2019-04-25T07:05:26.645Z,72.47
2019-04-25T07:06:15.963Z,71.99
2019-04-25T07:07:15.970Z,71.70
2019-04-25T07:08:15.982Z,71.99
2019-04-25T07:09:15.993Z,71.80
2019-04-25T07:10:15.998Z,72.18
2019-04-25T07:11:16.009Z,72.56
2019-04-25T07:12:16.013Z,72.28
2019-04-25T07:13:16.025Z,72.37
2019-04-25T07:14:16.028Z,71.70
2019-04-25T07:15:16.039Z,72.18
2019-04-25T07:16:16.048Z,71.61
2019-04-25T07:17:16.058Z,71.99
2019-04-25T07:18:16.079Z,72.08
2019-04-25T07:19:17.588Z,71.55
2019-04-25T07:20:16.082Z,71.45
2019-04-25T07:21:16.089Z,72.02
2019-04-25T07:22:16.098Z,71.64
2019-04-25T07:23:16.107Z,72.41
2019-04-25T07:24:17.533Z,72.60
2019-04-25T07:25:16.120Z,71.93
2019-04-25T07:26:16.129Z,71.45
2019-04-25T07:27:16.146Z,71.36
2019-04-25T07:28:23.856Z,71.55
2019-04-25T07:29:16.157Z,70.59
2019-04-25T07:30:26.893Z,71.45
2019-04-25T07:31:16.172Z,71.45
2019-04-25T07:32:16.188Z,71.45
2019-04-25T07:33:16.188Z,71.73
2019-04-25T07:34:16.195Z,72.41
2019-04-25T07:35:16.219Z,72.44
2019-04-25T07:36:16.216Z,71.20
2019-04-25T07:37:16.224Z,71.20
2019-04-25T07:38:16.236Z,71.77
2019-04-25T07:39:16.255Z,71.48
2019-04-25T07:40:16.249Z,70.91
2019-04-25T07:41:16.455Z,70.72
2019-04-25T07:42:16.267Z,71.68
2019-04-25T07:43:16.273Z,72.73
2019-04-25T07:44:16.281Z,71.97
2019-04-25T07:45:16.363Z,72.44
2019-04-25T07:46:16.302Z,72.44
2019-04-25T07:47:16.308Z,71.97
2019-04-25T07:48:16.324Z,70.15
2019-04-25T07:49:16.326Z,69.99
2019-04-25T07:50:16.337Z,69.60
2019-04-25T07:51:16.648Z,68.74
2019-04-25T07:52:16.355Z,69.70
2019-04-25T07:53:16.361Z,70.47
2019-04-25T07:54:16.372Z,69.03
2019-04-25T07:55:16.376Z,69.42
2019-04-25T07:56:16.385Z,69.51
2019-04-25T07:57:16.395Z,70.85
2019-04-25T07:58:16.406Z,70.98
2019-04-25T07:59:16.413Z,69.54
2019-04-25T08:00:16.419Z,70.79
2019-04-25T08:01:16.431Z,69.45
2019-04-25T08:02:16.444Z,68.78
2019-04-25T08:03:16.451Z,68.87
2019-04-25T08:04:16.466Z,68.49
2019-04-25T08:05:16.467Z,69.07
2019-04-25T08:06:16.477Z,68.97
2019-04-25T08:07:16.485Z,68.05
2019-04-25T08:08:16.499Z,67.85
2019-04-25T08:09:16.508Z,66.80
2019-04-25T08:10:16.515Z,65.75
2019-04-25T08:11:16.523Z,65.94
2019-04-25T08:12:16.530Z,66.13
2019-04-25T08:13:16.541Z,66.22
2019-04-25T08:14:16.549Z,65.75
2019-04-25T08:15:16.557Z,65.59
2019-04-25T08:16:16.567Z,65.01
2019-04-25T08:17:16.576Z,65.49
2019-04-25T08:18:16.584Z,65.68
2019-04-25T08:19:16.593Z,65.01
2019-04-25T08:20:16.603Z,65.68
2019-04-25T08:21:16.617Z,66.16
2019-04-25T08:22:16.620Z,65.01
2019-04-25T08:23:16.634Z,66.16
2019-04-25T08:24:16.644Z,66.74
2019-04-25T08:25:16.652Z,67.50
2019-04-25T08:26:16.657Z,66.83
2019-04-25T08:27:16.709Z,66.16
2019-04-25T08:28:16.677Z,65.88
2019-04-25T08:29:16.682Z,65.49
2019-04-25T08:30:16.692Z,65.59
2019-04-25T08:31:16.707Z,64.05
2019-04-25T08:32:16.713Z,63.89
2019-04-25T08:33:16.722Z,64.72
2019-04-25T08:34:16.729Z,63.22
2019-04-25T08:35:16.738Z,63.12
2019-04-25T08:36:16.757Z,63.99
2019-04-25T08:37:19.094Z,63.12
2019-04-25T08:38:16.768Z,63.12
2019-04-25T08:39:16.776Z,61.98
2019-04-25T08:40:16.789Z,61.30
2019-04-25T08:41:16.796Z,61.05
2019-04-25T08:42:16.808Z,60.85
2019-04-25T08:43:16.820Z,61.98
2019-04-25T08:44:16.825Z,62.10
2019-04-25T08:45:16.833Z,62.39
2019-04-25T08:46:16.843Z,60.38
2019-04-25T08:47:16.927Z,60.28
2019-04-25T08:48:16.861Z,61.72
2019-04-25T08:49:16.879Z,62.48
2019-04-25T08:50:26.824Z,62.39
2019-04-25T08:51:16.891Z,63.16
2019-04-25T08:52:16.896Z,63.06
2019-04-25T08:53:16.910Z,63.25
2019-04-25T08:54:16.925Z,63.83
2019-04-25T08:55:16.929Z,64.79
2019-04-25T08:56:16.943Z,65.65
2019-04-25T08:57:16.984Z,63.83
2019-04-25T08:58:16.960Z,63.73
2019-04-25T08:59:16.967Z,61.27
2019-04-25T09:00:16.979Z,61.91
2019-04-25T09:01:16.988Z,62.04
2019-04-25T09:02:16.990Z,60.69
2019-04-25T09:03:17.005Z,59.64
2019-04-25T09:04:17.016Z,60.98
2019-04-25T09:05:17.025Z,60.69
2019-04-25T09:06:17.033Z,61.17
2019-04-25T09:07:17.044Z,61.27
2019-04-25T09:08:17.053Z,60.02
2019-04-25T09:09:17.061Z,61.17
2019-04-25T09:10:17.073Z,60.50
2019-04-25T09:11:17.081Z,61.65
2019-04-25T09:12:17.091Z,61.27
2019-04-25T09:13:17.108Z,61.27
2019-04-25T09:14:17.110Z,61.55
2019-04-25T09:15:17.117Z,61.46
2019-04-25T09:16:17.132Z,62.04
2019-04-25T09:17:17.140Z,63.41
2019-04-25T09:18:17.151Z,63.41
2019-04-25T09:19:17.157Z,63.89
2019-04-25T09:20:17.173Z,63.12
2019-04-25T09:21:17.186Z,61.78
2019-04-25T09:22:17.196Z,60.72
2019-04-25T09:23:17.198Z,61.58
2019-04-25T09:24:17.211Z,59.28
2019-04-25T09:25:17.227Z,61.40
2019-04-25T09:26:17.230Z,60.37
2019-04-25T09:27:17.240Z,60.08
2019-04-25T09:28:17.250Z,60.08
2019-04-25T09:29:19.748Z,60.85
2019-04-25T09:30:17.268Z,60.46
2019-04-25T09:31:17.280Z,61.43
2019-04-25T09:32:17.291Z,62.29
2019-04-25T09:33:17.357Z,62.77
2019-04-25T09:34:17.305Z,61.23
2019-04-25T09:35:20.065Z,59.47
2019-04-25T09:36:17.329Z,59.99
2019-04-25T09:37:17.339Z,59.69
2019-04-25T09:38:17.355Z,59.99
2019-04-25T09:39:17.359Z,59.31
2019-04-25T09:40:17.371Z,58.64
2019-04-25T09:41:17.376Z,58.25
2019-04-25T09:42:17.395Z,61.07
2019-04-25T09:43:17.397Z,61.07
2019-04-25T09:44:17.410Z,61.46
2019-04-25T09:45:17.422Z,62.13
2019-04-25T09:46:17.437Z,61.16
2019-04-25T09:47:17.444Z,60.69
2019-04-25T09:48:17.453Z,59.82
2019-04-25T09:49:17.460Z,58.98
2019-04-25T09:50:17.473Z,61.10
2019-04-25T09:51:17.482Z,58.60
2019-04-25T09:52:17.496Z,58.98
2019-04-25T09:53:23.588Z,59.94
2019-04-25T09:54:17.511Z,57.92
2019-04-25T09:55:17.526Z,55.04
2019-04-25T09:56:17.536Z,56.80
2019-04-25T09:57:17.569Z,55.35
2019-04-25T09:58:17.561Z,57.37
2019-04-25T09:59:26.734Z,57.57
2019-04-25T10:00:17.580Z,56.60
2019-04-25T10:01:17.599Z,56.32
2019-04-25T10:02:17.602Z,54.97
2019-04-25T10:03:17.616Z,57.60
2019-04-25T10:04:17.623Z,58.47
2019-04-25T10:05:17.633Z,57.50
2019-04-25T10:06:17.662Z,57.60
2019-04-25T10:07:17.654Z,54.90
2019-04-25T10:08:17.665Z,54.42
2019-04-25T10:09:17.676Z,53.45
2019-04-25T10:10:17.691Z,56.37
2019-04-25T10:11:17.699Z,55.96
2019-04-25T10:12:17.711Z,55.67
2019-04-25T10:13:17.721Z,56.95
2019-04-25T10:14:17.732Z,55.70
2019-04-25T10:15:17.745Z,53.19
2019-04-25T10:16:17.757Z,52.42
2019-04-25T10:17:17.769Z,53.96
2019-04-25T10:18:17.778Z,50.98
2019-04-25T10:19:17.788Z,54.16
2019-04-25T10:20:17.800Z,55.79
2019-04-25T10:21:17.810Z,55.70
2019-04-25T10:22:17.824Z,56.01
2019-04-25T10:23:17.833Z,56.11
2019-04-25T10:24:17.847Z,53.31
2019-04-25T10:25:17.857Z,55.92
2019-04-25T10:26:17.874Z,56.88
2019-04-25T10:27:17.881Z,53.51
2019-04-25T10:28:17.900Z,50.42
2019-04-25T10:29:17.903Z,50.71
2019-04-25T10:30:20.707Z,52.45
2019-04-25T10:31:17.929Z,52.61
2019-04-25T10:32:17.942Z,51.36
2019-04-25T10:33:17.951Z,52.73
2019-04-25T10:34:17.961Z,52.93
2019-04-25T10:35:17.974Z,53.99
2019-04-25T10:36:17.988Z,54.21
2019-04-25T10:37:18.002Z,54.79
2019-04-25T10:38:18.010Z,53.15
2019-04-25T10:39:18.052Z,52.37
2019-04-25T10:40:18.043Z,54.14
2019-04-25T10:41:18.046Z,52.69
2019-04-25T10:42:18.059Z,52.62
2019-04-25T10:43:18.073Z,50.76
2019-04-25T10:44:18.082Z,51.17
2019-04-25T10:45:23.347Z,49.63
2019-04-25T10:46:18.111Z,51.75
2019-04-25T10:47:18.114Z,53.33
2019-04-25T10:48:18.129Z,50.23
2019-04-25T10:49:18.138Z,53.42
2019-04-25T10:50:18.155Z,52.94
2019-04-25T10:51:18.164Z,54.19
2019-04-25T10:52:18.182Z,52.65
2019-04-25T10:53:18.192Z,50.81
2019-04-25T10:54:18.208Z,50.43
2019-04-25T10:55:18.217Z,51.10
2019-04-25T10:56:18.235Z,52.75
2019-04-25T10:57:18.242Z,54.19
2019-04-25T10:58:18.258Z,47.91
2019-04-25T10:59:18.269Z,47.14
2019-04-25T11:00:18.281Z,47.84
2019-04-25T11:01:18.294Z,48.44
2019-04-25T11:02:18.307Z,46.51
2019-04-25T11:03:18.319Z,45.47
2019-04-25T11:04:18.334Z,43.15
2019-04-25T11:05:18.344Z,43.05
2019-04-25T11:06:18.358Z,44.70
2019-04-25T11:07:18.371Z,43.65
2019-04-25T11:08:18.387Z,45.40
2019-04-25T11:09:18.400Z,46.00
2019-04-25T11:10:18.410Z,45.34
2019-04-25T11:11:18.429Z,47.69
2019-04-25T11:12:18.445Z,43.23
2019-04-25T11:13:18.453Z,43.93
2019-04-25T11:14:18.468Z,41.41
2019-04-25T11:15:18.487Z,40.36
2019-04-25T11:16:18.495Z,43.86
2019-04-25T11:17:18.508Z,40.17
2019-04-25T11:18:18.521Z,40.66
2019-04-25T11:19:18.546Z,42.19
2019-04-25T11:20:18.551Z,41.02
2019-04-25T11:21:18.568Z,40.05
2019-04-25T11:22:18.587Z,39.65
2019-04-25T11:23:18.601Z,40.83
2019-04-25T11:24:18.614Z,40.54
2019-04-25T11:25:18.627Z,41.33
2019-04-25T11:26:18.644Z,41.47
2019-04-25T11:27:18.654Z,40.03
2019-04-25T11:28:18.669Z,37.35
2019-04-25T11:29:18.685Z,36.20
2019-04-25T11:30:18.700Z,35.15
2019-04-25T11:31:18.720Z,35.39
2019-04-25T11:32:20.038Z,34.38
2019-04-25T11:33:18.750Z,32.82
2019-04-25T11:34:18.767Z,31.88
2019-04-25T11:35:18.782Z,29.91
2019-04-25T11:36:18.796Z,27.84
2019-04-25T11:37:18.810Z,27.73
2019-04-25T11:38:18.829Z,29.00
2019-04-25T11:39:18.846Z,32.11
2019-04-25T11:40:18.863Z,28.39
2019-04-25T11:41:18.877Z,28.97
2019-04-25T11:42:18.899Z,27.69
2019-04-25T11:43:18.914Z,26.13
2019-04-25T11:44:18.937Z,25.04
2019-04-25T11:45:18.947Z,24.16
2019-04-25T11:46:18.964Z,25.31
2019-04-25T11:47:18.985Z,28.93
2019-04-25T11:48:19.000Z,26.10
2019-04-25T11:49:19.017Z,27.48
2019-04-25T11:50:19.034Z,27.19
2019-04-25T11:51:19.045Z,24.38
2019-04-25T11:52:27.558Z,22.34
2019-04-25T11:53:20.178Z,23.93
2019-04-25T11:54:19.106Z,25.11
2019-04-25T11:55:19.124Z,27.86
2019-04-25T11:56:19.137Z,25.42
2019-04-25T11:57:19.152Z,22.66
2019-04-25T11:58:19.173Z,22.64
2019-04-25T11:59:19.189Z,23.12
2019-04-25T12:00:22.152Z,23.01
2019-04-25T12:01:19.221Z,25.25
2019-04-25T12:02:19.251Z,22.73
2019-04-25T12:03:19.260Z,22.55
2019-04-25T12:04:19.282Z,23.62
2019-04-25T12:05:19.295Z,22.84
2019-04-25T12:06:19.311Z,22.53
2019-04-25T12:07:19.330Z,23.50
2019-04-25T12:08:19.353Z,25.15
2019-04-25T12:09:19.364Z,22.60
2019-04-25T12:10:19.388Z,22.31
2019-04-25T12:11:19.400Z,22.99
2019-04-25T12:12:19.476Z,24.17
2019-04-25T12:13:19.434Z,25.43
2019-04-25T12:14:19.447Z,26.51
2019-04-25T12:15:19.478Z,27.56
2019-04-25T12:16:19.487Z,27.37
2019-04-25T12:17:19.504Z,24.63
2019-04-25T12:18:19.520Z,25.40
2019-04-25T12:19:19.539Z,27.64
2019-04-25T12:20:19.551Z,28.32
2019-04-25T12:21:19.572Z,29.00
2019-04-25T12:22:19.588Z,26.65
2019-04-25T12:23:19.606Z,26.26
2019-04-25T12:24:19.623Z,27.70
2019-04-25T12:25:19.635Z,28.68
2019-04-25T12:26:19.654Z,28.78
2019-04-25T12:27:19.674Z,28.20
2019-04-25T12:28:19.691Z,27.04
2019-04-25T12:29:19.708Z,27.06
2019-04-25T12:30:19.720Z,25.15
2019-04-25T12:31:19.742Z,23.63
2019-04-25T12:32:19.755Z,23.57
2019-04-25T12:33:21.600Z,27.20
2019-04-25T12:34:19.787Z,25.93
2019-04-25T12:35:19.808Z,25.45
2019-04-25T12:36:19.819Z,25.17
2019-04-25T12:37:19.836Z,25.57
2019-04-25T12:38:20.403Z,23.00
2019-04-25T12:39:19.874Z,24.75
2019-04-25T12:40:19.900Z,25.12
2019-04-25T12:41:19.908Z,25.20
2019-04-25T12:42:19.927Z,27.22
2019-04-25T12:43:19.954Z,22.31
2019-04-25T12:44:19.977Z,22.23
2019-04-25T12:45:19.983Z,22.05
2019-04-25T12:46:20.010Z,19.04
2019-04-25T12:47:20.144Z,17.88
2019-04-25T12:48:20.032Z,20.84
2019-04-25T12:49:20.051Z,17.61
2019-04-25T12:50:20.071Z,17.61
2019-04-25T12:51:20.087Z,19.37
2019-04-25T12:52:20.105Z,20.85